Time;durP1;ratioP1;P1;durP2;ratioP2;P2;SDS_P1;SDS_P2;PMS_P1;PMS_P2;Temp;Humidity;BMP_temperature;BMP_pressure;BME280_temperature;BME280_humidity;BME280_pressure;Samples;Min_cycle;Max_cycle;Signal;HPM_P1;HPM_P2
2022/01/31 00:01:41;;;;;;;27.80;12.73;;;;;;;3.36;77.49;101473.50;5053795;28;20528;-52
2022/01/31 00:04:06;;;;;;;24.98;12.93;;;;;;;3.34;77.58;101445.59;5053699;28;20028;-53
2022/01/31 00:06:31;;;;;;;26.30;12.30;;;;;;;3.36;78.02;101421.53;5053723;28;20530;-52
2022/01/31 00:08:56;;;;;;;21.75;11.80;;;;;;;3.34;78.58;101406.44;5053769;28;20017;-52
2022/01/31 00:11:22;;;;;;;25.23;12.15;;;;;;;3.35;77.47;101388.97;5053932;28;20025;-49
2022/01/31 00:13:57;;;;;;;25.15;13.30;;;;;;;3.28;78.16;101395.41;5053663;28;20040;-49
2022/01/31 00:16:25;;;;;;;23.17;11.55;;;;;;;3.33;78.27;101385.63;5053241;28;20499;-49
2022/01/31 00:18:50;;;;;;;25.60;12.52;;;;;;;3.27;78.74;101393.75;5053280;28;20036;-49
2022/01/31 00:21:16;;;;;;;25.10;13.13;;;;;;;3.29;78.95;101379.81;5053331;28;20021;-50
2022/01/31 00:23:41;;;;;;;23.13;11.93;;;;;;;3.33;79.16;101371.97;5052829;28;20103;-49
2022/01/31 00:26:06;;;;;;;23.95;12.88;;;;;;;3.30;78.70;101351.41;5053076;28;20402;-51
2022/01/31 00:28:31;;;;;;;26.23;12.73;;;;;;;3.34;78.64;101344.38;5053386;28;20086;-54
2022/01/31 00:30:57;;;;;;;24.23;12.00;;;;;;;3.33;79.37;101325.47;5052015;28;20479;-50
2022/01/31 00:33:22;;;;;;;24.25;11.70;;;;;;;3.33;78.87;101318.13;5052495;28;20025;-49
2022/01/31 00:35:47;;;;;;;23.95;12.20;;;;;;;3.41;79.11;101322.31;5052996;28;20056;-51
2022/01/31 00:38:13;;;;;;;24.38;11.77;;;;;;;3.42;79.35;101308.44;5053249;28;20487;-49
2022/01/31 00:40:41;;;;;;;26.23;13.13;;;;;;;3.36;80.07;101297.63;5053088;28;20029;-49
2022/01/31 00:43:12;;;;;;;25.13;12.68;;;;;;;3.35;80.25;101280.41;5053343;28;20112;-50
2022/01/31 00:45:44;;;;;;;24.38;12.30;;;;;;;3.36;80.35;101256.63;5053068;28;20464;-51
2022/01/31 00:48:16;;;;;;;26.67;11.73;;;;;;;3.40;80.37;101257.78;5052953;28;20035;-52
2022/01/31 00:50:44;;;;;;;24.48;12.38;;;;;;;3.39;80.48;101236.97;5052487;28;20029;-51
2022/01/31 00:53:09;;;;;;;24.95;11.85;;;;;;;3.47;80.85;101236.56;5052405;28;20075;-53
2022/01/31 00:55:34;;;;;;;24.58;12.20;;;;;;;3.42;82.21;101225.53;5052331;28;20456;-51
2022/01/31 00:58:00;;;;;;;25.85;12.70;;;;;;;3.46;82.92;101221.22;5052249;28;20033;-52
2022/01/31 01:00:25;;;;;;;23.88;12.15;;;;;;;3.35;84.56;101201.09;5052627;28;20025;-53
2022/01/31 01:02:50;;;;;;;24.50;12.38;;;;;;;3.35;84.58;101203.84;5052454;28;20380;-51
2022/01/31 01:05:15;;;;;;;25.10;12.48;;;;;;;3.42;84.28;101190.81;5052206;28;20048;-54
2022/01/31 01:07:45;;;;;;;26.17;11.82;;;;;;;3.37;85.09;101181.69;5052703;28;20021;-53
2022/01/31 01:10:13;;;;;;;23.70;11.60;;;;;;;3.31;85.87;101172.59;5053454;28;20702;-54
2022/01/31 01:12:38;;;;;;;24.98;11.98;;;;;;;3.37;85.80;101162.56;5052778;28;20086;-54
2022/01/31 01:15:04;;;;;;;27.17;12.70;;;;;;;3.26;86.74;101161.53;5052726;28;20489;-54
2022/01/31 01:17:29;;;;;;;30.05;12.00;;;;;;;3.28;87.25;101151.19;5052433;28;20041;-54
2022/01/31 01:19:54;;;;;;;25.77;12.18;;;;;;;3.28;88.11;101143.84;5052098;28;20037;-52
2022/01/31 01:22:20;;;;;;;25.13;11.70;;;;;;;3.30;88.12;101129.91;5052955;28;20403;-53
2022/01/31 01:24:47;;;;;;;25.70;12.30;;;;;;;3.26;89.23;101128.72;5052133;28;20025;-53
2022/01/31 01:27:14;;;;;;;26.63;13.10;;;;;;;3.22;89.82;101109.28;5053042;28;20032;-53
2022/01/31 01:29:40;;;;;;;25.85;12.45;;;;;;;3.21;89.96;101101.31;5053042;28;20116;-54
2022/01/31 01:32:05;;;;;;;22.30;12.55;;;;;;;3.17;91.10;101086.47;5052477;28;20053;-53
2022/01/31 01:34:33;;;;;;;25.45;11.85;;;;;;;3.21;90.58;101074.81;5052357;28;20037;-53
2022/01/31 01:37:00;;;;;;;25.65;12.77;;;;;;;3.17;91.52;101067.34;5052423;28;20037;-51
2022/01/31 01:39:26;;;;;;;27.15;12.77;;;;;;;3.18;91.70;101049.88;5052867;28;20037;-50
2022/01/31 01:41:51;;;;;;;26.50;13.20;;;;;;;3.22;91.47;101061.97;5057037;28;20349;-53
2022/01/31 01:44:17;;;;;;;23.45;12.40;;;;;;;3.30;91.69;101039.66;5055969;28;20047;-52
2022/01/31 01:46:42;;;;;;;24.13;11.70;;;;;;;3.25;90.94;101029.47;5056237;28;20025;-50
2022/01/31 01:49:07;;;;;;;27.45;12.20;;;;;;;3.34;91.08;101035.34;5055650;28;20531;-49
2022/01/31 01:51:33;;;;;;;26.13;11.20;;;;;;;3.35;91.77;101031.53;5055243;28;20448;-49
2022/01/31 01:53:59;;;;;;;25.15;12.40;;;;;;;3.34;92.44;101005.28;5056069;28;20118;-53
2022/01/31 01:56:25;;;;;;;24.80;11.52;;;;;;;3.39;91.76;101007.25;5056258;28;20105;-54
2022/01/31 01:58:50;;;;;;;22.05;11.10;;;;;;;3.40;92.43;100985.09;5056232;28;20111;-54
2022/01/31 02:01:15;;;;;;;23.35;11.70;;;;;;;3.42;92.31;100969.28;5055655;28;20033;-51
2022/01/31 02:03:41;;;;;;;23.83;11.98;;;;;;;3.51;92.46;100960.63;5055970;28;20419;-54
2022/01/31 02:06:08;;;;;;;22.88;10.65;;;;;;;3.54;91.92;100951.91;5055229;28;20033;-53
2022/01/31 02:08:41;;;;;;;21.00;10.80;;;;;;;3.55;92.43;100961.75;5055664;28;20021;-53
2022/01/31 02:11:08;;;;;;;21.48;10.82;;;;;;;3.57;92.47;100946.75;5056264;28;20075;-53
2022/01/31 02:13:36;;;;;;;24.50;10.90;;;;;;;3.59;92.19;100938.28;5056289;28;20025;-54
2022/01/31 02:16:02;;;;;;;23.10;11.55;;;;;;;3.63;92.27;100924.91;5056073;28;20517;-53
2022/01/31 02:18:29;;;;;;;23.92;10.20;;;;;;;3.62;92.44;100926.81;5055181;28;20045;-52
2022/01/31 02:20:54;;;;;;;22.85;11.55;;;;;;;3.64;93.18;100921.09;5056089;28;20049;-53
2022/01/31 02:23:21;;;;;;;24.92;11.02;;;;;;;3.60;93.45;100912.56;5055580;28;20075;-52
2022/01/31 02:25:55;;;;;;;26.83;12.05;;;;;;;3.70;93.32;100915.41;5054060;28;20082;-53
2022/01/31 02:28:22;;;;;;;24.17;11.25;;;;;;;3.67;93.45;100913.19;5055499;28;20060;-51
2022/01/31 02:30:48;;;;;;;22.27;11.02;;;;;;;3.71;94.07;100910.75;5054620;28;20123;-53
2022/01/31 02:33:14;;;;;;;25.67;11.45;;;;;;;3.73;93.73;100916.81;5055049;28;20553;-51
2022/01/31 02:35:39;;;;;;;23.55;10.95;;;;;;;3.76;93.85;100910.81;5055099;28;20029;-51
2022/01/31 02:38:04;;;;;;;21.83;11.80;;;;;;;3.80;94.54;100908.38;5054775;28;20056;-52
2022/01/31 02:40:30;;;;;;;23.27;11.43;;;;;;;3.85;93.99;100897.47;5054257;28;20124;-53
2022/01/31 02:42:56;;;;;;;23.60;11.65;;;;;;;3.82;94.83;100889.81;5055351;28;20029;-53
2022/01/31 02:45:21;;;;;;;24.20;11.07;;;;;;;3.90;94.23;100884.66;5055610;28;20043;-53
2022/01/31 02:47:53;;;;;;;21.58;10.80;;;;;;;3.89;94.75;100879.47;5055041;28;20025;-54
2022/01/31 02:50:19;;;;;;;21.10;9.75;;;;;;;3.90;94.39;100853.75;5054553;28;20029;-53
2022/01/31 02:52:48;;;;;;;20.60;9.88;;;;;;;3.96;94.67;100866.38;5053316;28;20025;-53
2022/01/31 02:55:15;;;;;;;22.88;9.77;;;;;;;3.95;94.98;100844.75;5055034;28;20115;-54
2022/01/31 02:57:40;;;;;;;21.25;8.90;;;;;;;3.97;95.10;100837.91;5055454;28;20551;-55
2022/01/31 03:00:06;;;;;;;20.40;8.73;;;;;;;4.01;95.34;100835.47;5055087;28;20100;-53
2022/01/31 03:02:31;;;;;;;20.17;9.70;;;;;;;4.05;95.02;100842.09;5055092;28;20109;-50
2022/01/31 03:04:57;;;;;;;18.58;9.25;;;;;;;4.08;95.16;100829.78;5055150;28;20051;-52
2022/01/31 03:07:22;;;;;;;19.55;9.90;;;;;;;4.10;95.77;100842.13;5055126;28;20021;-53
2022/01/31 03:09:47;;;;;;;19.25;9.85;;;;;;;4.15;95.62;100836.69;5053645;28;20043;-54
2022/01/31 03:12:13;;;;;;;18.52;9.60;;;;;;;4.18;95.83;100822.47;5053883;28;20373;-51
2022/01/31 03:14:42;;;;;;;19.60;10.45;;;;;;;4.18;95.48;100819.72;5053593;28;20040;-52
2022/01/31 03:17:08;;;;;;;21.50;9.80;;;;;;;4.26;96.13;100817.56;5053468;28;20025;-52
2022/01/31 03:19:37;;;;;;;22.27;10.13;;;;;;;4.30;96.30;100829.66;5054260;28;20044;-53
2022/01/31 03:22:03;;;;;;;21.83;10.70;;;;;;;4.35;96.27;100838.72;5054389;28;20040;-52
2022/01/31 03:24:28;;;;;;;22.05;9.93;;;;;;;4.40;96.07;100840.69;5053624;28;20025;-54
2022/01/31 03:26:53;;;;;;;21.85;9.57;;;;;;;4.44;95.95;100813.56;5052985;28;20061;-51
2022/01/31 03:29:19;;;;;;;24.27;9.55;;;;;;;4.55;95.42;100817.19;5054126;28;20068;-53
2022/01/31 03:31:44;;;;;;;22.70;8.75;;;;;;;4.60;95.20;100811.75;5054234;28;20033;-51
2022/01/31 03:34:09;;;;;;;20.98;8.63;;;;;;;4.65;95.11;100820.81;5054046;28;20538;-52
2022/01/31 03:36:35;;;;;;;20.38;8.88;;;;;;;4.68;95.42;100803.00;5054373;28;20059;-51
2022/01/31 03:39:00;;;;;;;21.38;9.05;;;;;;;4.74;94.70;100803.84;5053793;28;20025;-54
2022/01/31 03:41:26;;;;;;;19.88;8.15;;;;;;;4.78;94.73;100797.56;5054312;28;20049;-54
2022/01/31 03:43:51;;;;;;;20.20;8.60;;;;;;;4.84;93.97;100790.19;5054329;28;20388;-54
2022/01/31 03:46:16;;;;;;;19.48;7.82;;;;;;;4.84;93.97;100787.44;5053631;28;20071;-55
2022/01/31 03:48:43;;;;;;;19.00;7.80;;;;;;;4.88;93.51;100788.53;5054221;28;20052;-54
2022/01/31 03:51:09;;;;;;;21.02;8.75;;;;;;;4.93;93.50;100779.50;5053745;28;20377;-55
2022/01/31 03:53:35;;;;;;;21.30;8.00;;;;;;;4.98;92.68;100777.59;5053660;28;20170;-53
2022/01/31 03:56:00;;;;;;;21.35;8.00;;;;;;;4.92;93.03;100784.19;5053685;28;20059;-54
2022/01/31 03:58:25;;;;;;;25.02;9.00;;;;;;;4.95;92.25;100794.63;5054097;28;20055;-56
2022/01/31 04:00:51;;;;;;;18.95;7.82;;;;;;;5.04;91.25;100785.88;5054180;28;20434;-54
2022/01/31 04:03:17;;;;;;;19.63;7.90;;;;;;;5.07;91.09;100788.88;5053700;28;20498;-55
2022/01/31 04:05:42;;;;;;;20.05;8.15;;;;;;;5.11;90.13;100787.22;5053731;28;20021;-53
2022/01/31 04:08:08;;;;;;;20.73;7.85;;;;;;;5.09;90.04;100773.00;5053745;28;20039;-54
2022/01/31 04:10:35;;;;;;;22.45;8.20;;;;;;;5.14;89.51;100783.16;5053121;28;20065;-55
2022/01/31 04:13:01;;;;;;;19.65;7.80;;;;;;;5.18;89.44;100766.97;5053173;28;20025;-50
2022/01/31 04:15:26;;;;;;;21.67;7.90;;;;;;;5.13;89.65;100779.56;5053136;28;20036;-52
2022/01/31 04:17:52;;;;;;;20.65;7.65;;;;;;;5.12;89.73;100777.91;5053667;28;20534;-53
2022/01/31 04:20:18;;;;;;;21.15;8.07;;;;;;;5.09;89.89;100778.47;5053710;28;20037;-55
2022/01/31 04:22:54;;;;;;;19.77;7.72;;;;;;;5.11;89.68;100770.78;5053147;28;20104;-54
2022/01/31 04:28:04;;;;;;;16.58;6.80;;;;;;;5.13;88.63;100754.06;5053295;28;20044;-53
2022/01/31 04:30:36;;;;;;;20.33;7.95;;;;;;;5.15;88.52;100760.94;5052039;28;20025;-54
2022/01/31 04:33:02;;;;;;;21.48;7.85;;;;;;;5.20;87.68;100753.78;5053092;28;20017;-54
2022/01/31 04:35:27;;;;;;;19.98;7.20;;;;;;;5.29;86.33;100765.91;5053287;28;20041;-53
2022/01/31 04:37:52;;;;;;;20.13;7.90;;;;;;;5.23;86.74;100762.31;5053344;28;20392;-53
2022/01/31 04:40:18;;;;;;;23.23;8.85;;;;;;;5.25;85.88;100760.09;5053212;28;20025;-52
2022/01/31 04:42:44;;;;;;;25.10;8.38;;;;;;;5.23;86.08;100766.97;5053385;28;20025;-51
2022/01/31 04:45:10;;;;;;;19.17;7.35;;;;;;;5.28;84.77;100765.06;5052667;28;20079;-52
2022/01/31 04:47:36;;;;;;;24.00;7.85;;;;;;;5.23;85.20;100761.47;5053421;28;20029;-53
2022/01/31 04:50:02;;;;;;;21.02;8.10;;;;;;;5.26;83.94;100764.50;5051777;28;20106;-53
2022/01/31 04:52:28;;;;;;;18.30;7.95;;;;;;;5.20;84.98;100771.09;5052833;28;20463;-50
2022/01/31 04:54:53;;;;;;;21.58;8.02;;;;;;;5.20;84.24;100771.09;5053422;28;20053;-52
2022/01/31 04:57:18;;;;;;;20.42;8.25;;;;;;;5.19;83.73;100760.41;5053096;28;20021;-50
2022/01/31 04:59:44;;;;;;;23.95;8.57;;;;;;;5.28;82.84;100770.53;5052727;28;20074;-51
2022/01/31 05:02:10;;;;;;;18.42;7.72;;;;;;;5.22;83.15;100751.59;5053165;28;20104;-52
2022/01/31 05:04:35;;;;;;;18.08;7.25;;;;;;;5.22;82.91;100757.94;5052908;28;20025;-51
2022/01/31 05:07:00;;;;;;;18.35;8.27;;;;;;;5.23;82.14;100753.25;5052206;28;20180;-53
2022/01/31 05:09:26;;;;;;;20.90;8.23;;;;;;;5.20;81.99;100754.63;5052834;28;20477;-53
2022/01/31 05:11:51;;;;;;;21.65;8.65;;;;;;;5.23;81.53;100747.78;5052842;28;20158;-52
2022/01/31 05:14:17;;;;;;;19.90;8.35;;;;;;;5.18;82.17;100742.28;5051865;28;20064;-52
2022/01/31 05:16:43;;;;;;;21.08;8.43;;;;;;;5.17;81.64;100738.72;5052733;28;20380;-53
2022/01/31 05:19:08;;;;;;;17.92;8.18;;;;;;;5.14;81.56;100734.59;5052643;28;20025;-53
2022/01/31 05:21:33;;;;;;;22.17;8.38;;;;;;;5.18;80.91;100732.13;5052148;28;20472;-54
2022/01/31 05:23:59;;;;;;;20.45;8.38;;;;;;;5.18;80.67;100732.13;5052599;28;20028;-51
2022/01/31 05:26:24;;;;;;;22.48;8.23;;;;;;;5.15;80.76;100717.06;5052355;28;20029;-52
2022/01/31 05:28:49;;;;;;;18.23;8.68;;;;;;;5.09;81.20;100707.19;5052433;28;20036;-53
2022/01/31 05:31:15;;;;;;;21.90;8.50;;;;;;;5.08;80.75;100712.91;5052582;28;20041;-55
2022/01/31 05:33:40;;;;;;;21.35;8.23;;;;;;;5.07;80.47;100712.09;5052314;28;20622;-55
2022/01/31 05:36:07;;;;;;;19.55;7.82;;;;;;;5.09;80.14;100693.47;5052915;28;20025;-56
2022/01/31 05:38:35;;;;;;;19.60;8.50;;;;;;;5.10;79.26;100691.53;5051872;28;20476;-52
2022/01/31 05:41:05;;;;;;;22.02;8.48;;;;;;;5.10;79.46;100683.31;5052637;28;20540;-54
2022/01/31 05:43:30;;;;;;;19.17;8.30;;;;;;;5.10;79.96;100686.88;5051070;28;20024;-52
2022/01/31 05:45:55;;;;;;;21.13;8.40;;;;;;;5.11;80.84;100684.97;5051737;28;20025;-54
2022/01/31 05:48:21;;;;;;;19.13;8.45;;;;;;;5.14;80.80;100690.72;5052524;28;20036;-51
2022/01/31 05:50:46;;;;;;;20.10;8.30;;;;;;;5.09;81.73;100684.41;5052473;28;20052;-50
2022/01/31 05:53:12;;;;;;;20.92;9.05;;;;;;;5.06;82.25;100704.97;5052044;28;20484;-50
2022/01/31 05:55:37;;;;;;;23.83;9.35;;;;;;;5.00;84.36;100744.47;5052181;28;20027;-49
2022/01/31 05:58:02;;;;;;;15.52;8.25;;;;;;;4.93;84.12;100736.50;5052440;28;20082;-51
2022/01/31 06:00:28;;;;;;;17.55;8.80;;;;;;;4.76;85.00;100758.63;5052265;28;20484;-53
2022/01/31 06:02:58;;;;;;;18.38;8.98;;;;;;;4.32;86.33;100723.41;5051244;28;20395;-54
2022/01/31 06:05:24;;;;;;;16.98;8.30;;;;;;;4.20;87.98;100740.06;5051830;28;20025;-51
2022/01/31 06:07:50;;;;;;;16.92;8.00;;;;;;;4.05;88.88;100729.84;5051436;28;20021;-50
2022/01/31 06:10:16;;;;;;;18.60;8.68;;;;;;;3.86;90.09;100737.66;5052136;28;20067;-50
2022/01/31 06:12:41;;;;;;;19.67;8.35;;;;;;;3.85;90.17;100730.53;5052270;28;20025;-51
2022/01/31 06:15:08;;;;;;;18.52;8.55;;;;;;;3.84;90.27;100707.81;5052211;28;20021;-51
2022/01/31 06:17:33;;;;;;;18.77;8.73;;;;;;;3.78;90.09;100708.88;5051564;28;20384;-52
2022/01/31 06:19:58;;;;;;;25.05;8.88;;;;;;;3.80;90.90;100697.69;5051641;28;20037;-52
2022/01/31 06:22:23;;;;;;;19.52;8.85;;;;;;;3.84;90.98;100701.50;5051956;28;20017;-54
2022/01/31 06:24:49;;;;;;;21.15;8.23;;;;;;;3.85;90.80;100703.16;5051345;28;20056;-53
2022/01/31 06:27:16;;;;;;;16.10;7.70;;;;;;;3.87;91.03;100707.28;5054525;28;20029;-55
2022/01/31 06:29:41;;;;;;;21.15;7.55;;;;;;;3.90;90.64;100697.75;5055856;28;20029;-52
2022/01/31 06:32:07;;;;;;;21.38;7.70;;;;;;;3.98;91.00;100690.91;5054671;28;20024;-54
2022/01/31 06:34:32;;;;;;;24.98;7.80;;;;;;;4.01;90.02;100698.59;5055691;28;20043;-52
2022/01/31 06:37:02;;;;;;;20.60;8.07;;;;;;;4.05;89.94;100695.06;5055457;28;20423;-52
2022/01/31 06:39:27;;;;;;;23.02;7.75;;;;;;;4.12;89.12;100700.31;5055649;28;20047;-50
2022/01/31 06:41:53;;;;;;;20.77;8.38;;;;;;;4.15;88.13;100709.91;5055642;28;20107;-55
2022/01/31 06:44:18;;;;;;;20.70;7.43;;;;;;;4.14;90.04;100689.94;5055268;28;20029;-51
2022/01/31 06:46:44;;;;;;;22.15;8.43;;;;;;;4.17;89.52;100694.84;5054330;28;20385;-54
2022/01/31 06:49:09;;;;;;;19.20;7.93;;;;;;;4.14;89.33;100706.34;5055531;28;20079;-53
2022/01/31 06:51:34;;;;;;;19.80;7.80;;;;;;;4.18;89.11;100701.97;5055279;28;20025;-50
2022/01/31 06:54:01;;;;;;;16.80;7.50;;;;;;;4.22;88.21;100689.41;5055521;28;20053;-54
2022/01/31 06:56:30;;;;;;;20.98;7.50;;;;;;;4.24;87.37;100680.91;5055763;28;20029;-53
2022/01/31 06:58:56;;;;;;;18.77;7.53;;;;;;;4.19;87.96;100676.25;5055175;28;20028;-52
2022/01/31 07:01:24;;;;;;;23.27;8.18;;;;;;;4.30;87.30;100681.75;5053925;28;20360;-53
2022/01/31 07:03:50;;;;;;;26.10;7.45;;;;;;;4.32;87.18;100698.75;5055202;28;20440;-53
2022/01/31 07:06:15;;;;;;;22.73;8.15;;;;;;;4.29;87.40;100702.88;5054886;28;20017;-55
2022/01/31 07:08:41;;;;;;;22.13;7.85;;;;;;;4.30;86.62;100693.53;5055022;28;20075;-55
2022/01/31 07:11:06;;;;;;;22.85;8.20;;;;;;;4.29;87.42;100697.38;5055189;28;20491;-49
2022/01/31 07:15:59;;;;;;;22.92;8.52;;;;;;;4.29;88.03;100702.03;5055092;28;20132;-55
2022/01/31 07:18:24;;;;;;;23.65;8.40;;;;;;;4.22;88.08;100699.53;5054545;28;20508;-53
2022/01/31 07:20:52;;;;;;;24.70;8.88;;;;;;;4.21;88.41;100697.88;5054824;28;20033;-51
2022/01/31 07:23:24;;;;;;;18.15;7.55;;;;;;;4.31;87.75;100713.53;5055008;28;20522;-54
2022/01/31 07:25:49;;;;;;;21.17;8.30;;;;;;;4.32;87.72;100726.16;5051581;28;20571;-51
2022/01/31 07:28:19;;;;;;;22.67;8.20;;;;;;;4.29;88.08;100754.06;5052441;28;20039;-51
2022/01/31 07:30:46;;;;;;;20.63;8.88;;;;;;;4.21;88.97;100730.72;5052823;28;20071;-50
2022/01/31 07:33:13;;;;;;;25.85;9.05;;;;;;;3.97;90.14;100739.38;5052219;28;20025;-51
2022/01/31 07:35:40;;;;;;;23.65;9.20;;;;;;;3.68;91.53;100704.16;5050989;28;20064;-52
2022/01/31 07:38:06;;;;;;;23.35;8.73;;;;;;;3.77;91.98;100722.81;5051035;28;20100;-52
2022/01/31 07:40:31;;;;;;;26.00;8.52;;;;;;;3.57;93.00;100744.31;5052166;28;20124;-54
2022/01/31 07:42:56;;;;;;;22.17;8.40;;;;;;;3.51;94.00;100700.75;5052292;28;20423;-54
2022/01/31 07:45:22;;;;;;;19.40;8.05;;;;;;;3.53;92.66;100718.56;5052697;28;20037;-53
2022/01/31 07:47:47;;;;;;;26.42;8.93;;;;;;;3.45;94.34;100731.91;5050422;28;20430;-54
2022/01/31 07:50:13;;;;;;;19.17;8.27;;;;;;;3.53;93.82;100704.06;5052286;28;20353;-50
2022/01/31 07:52:39;;;;;;;23.08;8.23;;;;;;;3.58;92.78;100709.56;5052488;28;20119;-50
2022/01/31 07:55:05;;;;;;;19.98;7.97;;;;;;;3.60;92.96;100718.34;5052295;28;20136;-54
2022/01/31 07:57:30;;;;;;;20.25;7.75;;;;;;;3.53;93.43;100717.75;5052154;28;20044;-51
2022/01/31 07:59:55;;;;;;;25.17;8.45;;;;;;;3.50;94.41;100707.31;5052221;28;20033;-53
2022/01/31 08:02:21;;;;;;;23.67;8.50;;;;;;;3.54;94.40;100716.66;5051970;28;20526;-53
2022/01/31 08:04:46;;;;;;;23.08;7.35;;;;;;;3.55;94.03;100718.28;5052342;28;20350;-51
2022/01/31 08:07:12;;;;;;;20.23;7.25;;;;;;;3.56;94.28;100725.41;5051979;28;20029;-53
2022/01/31 08:09:38;;;;;;;20.73;6.47;;;;;;;3.59;93.63;100716.69;5052064;28;20029;-50
2022/01/31 08:12:04;;;;;;;21.65;7.03;;;;;;;3.63;93.76;100711.50;5051936;28;20113;-53
2022/01/31 08:14:30;;;;;;;29.67;7.70;;;;;;;3.70;93.03;100717.56;5051828;28;20030;-51
2022/01/31 08:16:55;;;;;;;26.75;8.18;;;;;;;3.79;90.55;100712.44;5051684;28;20388;-51
2022/01/31 08:19:21;;;;;;;24.83;7.20;;;;;;;3.82;91.37;100720.94;5051789;28;20452;-53
2022/01/31 08:21:46;;;;;;;24.95;7.85;;;;;;;3.83;90.89;100738.19;5051691;28;20083;-52
2022/01/31 08:24:11;;;;;;;22.50;7.45;;;;;;;3.80;91.85;100742.28;5051563;28;20057;-53
2022/01/31 08:26:37;;;;;;;26.10;8.80;;;;;;;3.86;90.87;100735.75;5051603;28;20029;-50
2022/01/31 08:29:16;;;;;;;22.08;8.32;;;;;;;3.97;90.50;100733.91;5051578;28;20021;-54
2022/01/31 08:31:42;;;;;;;21.25;7.50;;;;;;;3.93;90.45;100735.50;5051448;28;20032;-51
2022/01/31 08:36:43;;;;;;;24.70;7.13;;;;;;;3.92;91.16;100731.13;5049492;28;20044;-50
2022/01/31 08:39:11;;;;;;;22.60;7.50;;;;;;;3.98;90.75;100724.59;5051444;28;20025;-53
2022/01/31 08:41:37;;;;;;;27.90;7.95;;;;;;;4.02;90.13;100739.38;5051337;28;20468;-51
2022/01/31 08:44:04;;;;;;;22.92;7.70;;;;;;;4.08;90.37;100733.97;5051190;28;20362;-50
2022/01/31 08:46:30;;;;;;;25.23;8.50;;;;;;;3.96;91.23;100724.03;5049362;28;20029;-52
2022/01/31 08:48:55;;;;;;;21.20;7.50;;;;;;;4.11;89.21;100733.44;5050818;28;20035;-53
2022/01/31 08:51:21;;;;;;;24.52;7.72;;;;;;;4.09;90.23;100739.16;5050958;28;20024;-54
2022/01/31 08:53:48;;;;;;;30.13;9.23;;;;;;;4.12;89.23;100738.66;5051034;28;20057;-54
2022/01/31 08:56:14;;;;;;;26.08;7.93;;;;;;;4.04;90.33;100756.38;5051448;28;20383;-52
2022/01/31 08:58:47;;;;;;;29.02;8.35;;;;;;;4.13;89.18;100750.41;5051147;28;20040;-50
2022/01/31 09:01:17;;;;;;;23.33;7.57;;;;;;;4.11;89.26;100733.44;5051374;28;20037;-50
2022/01/31 09:06:19;;;;;;;22.50;7.95;;;;;;;4.21;88.28;100715.16;5051212;28;20033;-53
2022/01/31 09:08:45;;;;;;;24.00;8.00;;;;;;;4.15;88.10;100738.13;5050956;28;20029;-54
2022/01/31 09:11:10;;;;;;;21.88;7.28;;;;;;;4.26;87.63;100780.06;5050918;28;20024;-53
2022/01/31 09:13:36;;;;;;;26.40;8.93;;;;;;;4.17;88.02;100801.63;5050753;28;20029;-50
2022/01/31 09:16:02;;;;;;;28.80;8.77;;;;;;;3.94;90.15;100759.06;5050888;28;20021;-51
2022/01/31 09:18:28;;;;;;;23.55;8.00;;;;;;;3.84;91.67;100737.94;5050822;28;20033;-50
2022/01/31 09:20:54;;;;;;;21.55;7.88;;;;;;;3.80;92.94;100758.69;5050716;28;20025;-54
2022/01/31 09:23:19;;;;;;;25.15;8.48;;;;;;;3.78;91.76;100781.94;5050725;28;20029;-54
2022/01/31 09:25:47;;;;;;;29.77;8.70;;;;;;;3.77;93.26;100758.41;5050337;28;20029;-54
2022/01/31 09:28:15;;;;;;;26.95;8.90;;;;;;;3.72;92.43;100764.66;5050715;28;20025;-51
2022/01/31 09:30:43;;;;;;;26.42;7.75;;;;;;;3.68;93.20;100760.81;5049424;28;20068;-52
2022/01/31 09:33:09;;;;;;;26.83;8.80;;;;;;;3.66;93.25;100762.97;5050380;28;20112;-50
2022/01/31 09:35:35;;;;;;;28.38;9.57;;;;;;;3.68;93.65;100780.78;5050618;28;20477;-51
2022/01/31 09:38:02;;;;;;;32.40;9.68;;;;;;;3.69;93.85;100757.81;5050670;28;20060;-50
2022/01/31 09:40:27;;;;;;;32.42;12.00;;;;;;;3.68;92.92;100788.16;5050407;28;20032;-51
2022/01/31 09:48:33;;;;;;;27.92;11.30;;;;;;;3.67;92.68;100814.69;5049832;28;20471;-53
2022/01/31 09:51:11;;;;;;;32.85;9.07;;;;;;;3.63;93.83;100845.56;5030729;28;20575;-51
2022/01/31 09:53:41;;;;;;;33.85;10.32;;;;;;;3.60;92.09;100792.19;5030562;28;20107;-50
2022/01/31 09:56:09;;;;;;;35.45;9.75;;;;;;;3.58;93.50;100800.69;5030510;28;20029;-53
2022/01/31 09:58:35;;;;;;;29.95;9.63;;;;;;;3.60;93.64;100805.88;5030572;28;20507;-54
2022/01/31 10:01:07;;;;;;;27.80;10.40;;;;;;;3.56;93.98;100800.09;5031604;28;20044;-51
2022/01/31 10:03:32;;;;;;;24.52;9.07;;;;;;;3.58;95.37;100799.84;5034317;28;20465;-53
2022/01/31 10:05:58;;;;;;;27.20;8.55;;;;;;;3.64;94.02;100839.00;5034292;28;20429;-51
2022/01/31 10:08:29;;;;;;;32.13;10.07;;;;;;;3.60;94.62;100855.13;5049381;28;20033;-49
2022/01/31 10:11:00;;;;;;;30.33;9.57;;;;;;;3.47;96.18;100818.06;5034224;28;20079;-53
2022/01/31 10:16:30;;;;;;;28.73;9.95;;;;;;;3.48;96.00;100825.19;5037962;28;20086;-51
2022/01/31 10:19:08;;;;;;;37.80;9.93;;;;;;;3.46;96.10;100827.34;5042716;28;20037;-50
2022/01/31 10:22:00;;;;;;;31.70;10.68;;;;;;;3.55;94.05;100866.00;5033694;28;20033;-48
2022/01/31 10:24:27;;;;;;;31.08;10.35;;;;;;;3.55;95.69;100850.44;5033731;28;20025;-51
2022/01/31 10:26:52;;;;;;;38.88;11.45;;;;;;;3.59;93.90;100878.09;5033652;28;20602;-52
2022/01/31 10:29:20;;;;;;;35.65;11.82;;;;;;;3.65;92.48;100879.78;5036132;28;20026;-50
2022/01/31 10:32:03;;;;;;;34.22;11.43;;;;;;;3.67;91.53;100896.75;5053243;28;20083;-48
2022/01/31 10:34:32;;;;;;;41.33;13.23;;;;;;;3.72;92.00;100879.56;5051837;28;20323;-50
2022/01/31 10:37:03;;;;;;;36.60;11.27;;;;;;;3.68;92.39;100894.88;5053093;28;20086;-50
2022/01/31 10:45:31;;;;;;;33.00;9.73;;;;;;;3.70;91.01;100874.38;5052632;28;19923;-52
2022/01/31 10:53:25;;;;;;;42.45;11.55;;;;;;;3.64;92.86;100891.81;5050272;28;20556;-54
2022/01/31 10:55:55;;;;;;;35.92;11.90;;;;;;;3.68;91.60;100958.63;5052784;28;20020;-54
2022/01/31 10:58:21;;;;;;;37.05;11.00;;;;;;;3.63;92.71;100908.47;5052577;28;20035;-51
2022/01/31 11:00:46;;;;;;;36.60;11.63;;;;;;;3.64;92.06;100908.22;5052450;28;20104;-48
2022/01/31 11:03:32;;;;;;;36.28;10.68;;;;;;;3.64;91.59;100894.53;5052664;28;20555;-51
2022/01/31 11:06:04;;;;;;;28.90;9.02;;;;;;;3.69;91.15;100912.91;5052001;28;20021;-50
2022/01/31 11:08:29;;;;;;;37.90;11.43;;;;;;;3.76;89.33;100979.22;5052283;28;20083;-51
2022/01/31 11:11:00;;;;;;;34.13;10.80;;;;;;;3.70;90.14;100948.25;5052093;28;20029;-52
2022/01/31 11:13:27;;;;;;;33.30;10.75;;;;;;;3.63;91.52;100933.94;5049180;28;20025;-50
2022/01/31 11:15:54;;;;;;;36.75;10.80;;;;;;;3.51;92.49;100934.06;5052355;28;20031;-53
2022/01/31 11:18:22;;;;;;;35.85;10.93;;;;;;;3.49;93.48;100944.47;5052472;28;20024;-50
2022/01/31 11:20:49;;;;;;;37.97;11.20;;;;;;;3.43;93.19;100949.06;5051326;28;20032;-50
2022/01/31 11:23:18;;;;;;;33.00;11.30;;;;;;;3.44;93.07;100936.19;5052903;28;20029;-53
2022/01/31 11:25:50;;;;;;;31.70;11.10;;;;;;;3.36;93.60;100944.84;5050944;28;20039;-51
2022/01/31 11:28:17;;;;;;;32.95;11.63;;;;;;;3.35;95.57;100954.97;5052157;28;20547;-51
2022/01/31 11:30:42;;;;;;;34.97;11.27;;;;;;;3.41;93.67;100953.09;5052008;28;20036;-52
2022/01/31 11:33:10;;;;;;;30.30;10.70;;;;;;;3.42;94.41;100972.00;5051992;28;20025;-49
2022/01/31 11:35:35;;;;;;;33.03;10.45;;;;;;;3.36;95.66;100953.06;5051958;28;20025;-54
2022/01/31 11:38:02;;;;;;;31.00;10.18;;;;;;;3.41;94.39;100972.25;5051801;28;20067;-53
2022/01/31 11:40:27;;;;;;;27.50;9.68;;;;;;;3.38;95.46;100975.50;5051960;28;20017;-53
2022/01/31 11:42:53;;;;;;;34.13;11.07;;;;;;;3.42;94.88;101023.97;5051802;28;20934;-52
2022/01/31 11:45:25;;;;;;;34.03;9.98;;;;;;;3.30;96.23;100960.38;5048801;28;20037;-54
2022/01/31 11:47:52;;;;;;;43.17;11.27;;;;;;;3.32;97.28;100976.50;5050173;28;20079;-54
2022/01/31 11:50:20;;;;;;;36.65;10.95;;;;;;;3.30;97.44;100995.91;5052111;28;20060;-54